Terminal Aerodrome Forecast
Issued by NWS

Home | Current Version | Previous Version | Graphics & Text | Print | Product List | Glossary Off
Versions: 1 2 3 4 5 6 7 8 9 10 11 12 13 14 15

052
FTUS43 KICT 082322
TAFHUT
TAF
KHUT 082322Z 0900/0924 33005KT P6SM SKC
     FM091200 13004KT P6SM SCT110
     FM091500 15009KT P6SM SCT100
     FM091800 17013KT P6SM SCT120
     FM092300 16006KT P6SM SCT130=

USA.gov is the U.S. government's official web portal to all federal, state and local government web resources and services.